Time;durP1;ratioP1;P1;durP2;ratioP2;P2;SDS_P1;SDS_P2;PMS_P1;PMS_P2;Temp;Humidity;BMP_temperature;BMP_pressure;BME280_temperature;BME280_humidity;BME280_pressure;Samples;Min_cycle;Max_cycle;Signal;HPM_P1;HPM_P2
2021/10/27 00:02:06;;;;;;;3.60;2.80;;;;;;;;;;5112170;28;20074;-49
2021/10/27 00:04:31;;;;;;;3.80;2.75;;;;;;;;;;5112248;28;20042;-49
2021/10/27 00:06:57;;;;;;;3.78;2.90;;;;;;;;;;5111384;28;20034;-52
2021/10/27 00:09:22;;;;;;;5.32;2.70;;;;;;;;;;5111748;28;20393;-52
2021/10/27 00:11:48;;;;;;;5.03;2.97;;;;;;;;;;5111720;28;20028;-49
2021/10/27 00:14:13;;;;;;;4.38;2.80;;;;;;;;;;5111879;28;20030;-51
2021/10/27 00:16:38;;;;;;;3.08;2.78;;;;;;;;;;5111867;28;20023;-50
2021/10/27 00:19:04;;;;;;;3.22;2.50;;;;;;;;;;5111271;28;20432;-50
2021/10/27 00:21:29;;;;;;;3.78;2.83;;;;;;;;;;5111683;28;20035;-52
2021/10/27 00:23:55;;;;;;;4.63;2.88;;;;;;;;;;5111775;28;20068;-50
2021/10/27 00:26:20;;;;;;;3.00;2.67;;;;;;;;;;5111653;28;20027;-52
2021/10/27 00:28:46;;;;;;;3.75;2.45;;;;;;;;;;5111763;28;20076;-49
2021/10/27 00:31:11;;;;;;;4.03;3.00;;;;;;;;;;5111681;28;20114;-49
2021/10/27 00:33:37;;;;;;;4.47;2.85;;;;;;;;;;5111786;28;20032;-47
2021/10/27 00:36:03;;;;;;;3.97;2.58;;;;;;;;;;5111628;28;20069;-48
2021/10/27 00:38:28;;;;;;;4.70;2.95;;;;;;;;;;5111773;28;20436;-48
2021/10/27 00:40:54;;;;;;;3.80;2.60;;;;;;;;;;5111711;28;20024;-48
2021/10/27 00:43:19;;;;;;;3.10;2.37;;;;;;;;;;5111519;28;20027;-47
2021/10/27 00:45:44;;;;;;;3.95;2.90;;;;;;;;;;5110307;28;20024;-48
2021/10/27 00:48:10;;;;;;;3.13;2.67;;;;;;;;;;5111450;28;20052;-48
2021/10/27 00:50:35;;;;;;;3.75;2.80;;;;;;;;;;5111649;28;20446;-47
2021/10/27 00:53:01;;;;;;;2.77;2.43;;;;;;;;;;5111470;28;20055;-47
2021/10/27 00:55:26;;;;;;;4.05;3.00;;;;;;;;;;5111494;28;20020;-48
2021/10/27 00:57:53;;;;;;;4.13;3.05;;;;;;;;;;5111254;28;20505;-49
2021/10/27 01:00:19;;;;;;;4.85;2.50;;;;;;;;;;5111484;28;20020;-48
2021/10/27 01:02:44;;;;;;;3.90;3.10;;;;;;;;;;5111640;28;20145;-48
2021/10/27 01:05:11;;;;;;;3.38;2.85;;;;;;;;;;5111291;28;20046;-47
2021/10/27 01:07:37;;;;;;;4.07;2.83;;;;;;;;;;5111261;28;20502;-49
2021/10/27 01:10:03;;;;;;;3.08;2.63;;;;;;;;;;5111226;28;20102;-50
2021/10/27 01:12:28;;;;;;;3.83;2.90;;;;;;;;;;5111501;28;20104;-49
2021/10/27 01:14:53;;;;;;;3.75;2.70;;;;;;;;;;5111064;28;20054;-47
2021/10/27 01:17:19;;;;;;;4.93;2.85;;;;;;;;;;5111034;28;20027;-48
2021/10/27 01:19:46;;;;;;;2.87;2.60;;;;;;;;;;5113662;28;20030;-51
2021/10/27 01:22:14;;;;;;;4.38;3.35;;;;;;;;;;5115142;28;20023;-48
2021/10/27 01:24:40;;;;;;;3.65;2.60;;;;;;;;;;5114361;28;20377;-47
2021/10/27 01:27:05;;;;;;;4.43;2.65;;;;;;;;;;5115077;28;20019;-48
2021/10/27 01:29:31;;;;;;;3.85;2.63;;;;;;;;;;5114783;28;20042;-48
2021/10/27 01:31:56;;;;;;;3.30;2.47;;;;;;;;;;5114996;28;20427;-50
2021/10/27 01:34:22;;;;;;;4.53;2.80;;;;;;;;;;5114196;28;20031;-47
2021/10/27 01:36:47;;;;;;;2.88;2.60;;;;;;;;;;5114921;28;20094;-47
2021/10/27 01:39:12;;;;;;;3.00;2.50;;;;;;;;;;5114121;28;20103;-50
2021/10/27 01:41:38;;;;;;;3.65;2.92;;;;;;;;;;5112612;28;20024;-47
2021/10/27 01:44:03;;;;;;;2.78;2.55;;;;;;;;;;5114697;27;20472;-47
2021/10/27 01:46:33;;;;;;;3.00;2.67;;;;;;;;;;5113465;28;20070;-50
2021/10/27 01:48:59;;;;;;;3.00;2.70;;;;;;;;;;5114102;28;20110;-47
2021/10/27 01:51:26;;;;;;;4.18;2.75;;;;;;;;;;5114224;28;20031;-48
2021/10/27 01:53:52;;;;;;;4.13;2.88;;;;;;;;;;5114447;28;20032;-47
2021/10/27 01:56:18;;;;;;;3.17;2.88;;;;;;;;;;5114092;28;20027;-50
2021/10/27 01:58:44;;;;;;;3.20;2.90;;;;;;;;;;5114437;28;20019;-47
2021/10/27 02:01:09;;;;;;;3.28;2.95;;;;;;;;;;5114133;27;20502;-48
2021/10/27 02:03:34;;;;;;;3.20;2.90;;;;;;;;;;5114414;28;20033;-47
2021/10/27 02:06:00;;;;;;;5.57;2.80;;;;;;;;;;5113537;28;20028;-48
2021/10/27 02:08:25;;;;;;;3.50;2.75;;;;;;;;;;5114018;28;20038;-47
2021/10/27 02:10:51;;;;;;;3.63;3.30;;;;;;;;;;5113905;28;20518;-47
2021/10/27 02:13:16;;;;;;;3.35;2.70;;;;;;;;;;5112268;28;20071;-47
2021/10/27 02:15:42;;;;;;;3.22;2.92;;;;;;;;;;5112803;28;20049;-47
2021/10/27 02:18:08;;;;;;;3.28;2.75;;;;;;;;;;5114305;28;20499;-48
2021/10/27 02:20:33;;;;;;;3.13;2.63;;;;;;;;;;5113852;28;20019;-47
2021/10/27 02:22:58;;;;;;;3.13;2.83;;;;;;;;;;5114000;28;20027;-46
2021/10/27 02:25:24;;;;;;;3.03;2.72;;;;;;;;;;5113872;28;20036;-47
2021/10/27 02:27:49;;;;;;;4.35;2.95;;;;;;;;;;5113643;28;20024;-47
2021/10/27 02:30:14;;;;;;;3.35;2.78;;;;;;;;;;5112779;28;20621;-48
2021/10/27 02:32:40;;;;;;;3.03;2.72;;;;;;;;;;5113955;27;20503;-47
2021/10/27 02:35:05;;;;;;;3.60;2.65;;;;;;;;;;5113785;28;20492;-48
2021/10/27 02:37:31;;;;;;;4.90;2.55;;;;;;;;;;5113238;28;20416;-47
2021/10/27 02:39:56;;;;;;;3.20;2.60;;;;;;;;;;5112703;28;20023;-47
2021/10/27 02:42:21;;;;;;;3.30;2.80;;;;;;;;;;5113449;28;20488;-49
2021/10/27 02:44:47;;;;;;;2.88;2.58;;;;;;;;;;5112066;28;20473;-47
2021/10/27 02:47:12;;;;;;;2.77;2.40;;;;;;;;;;5113133;28;20464;-47
2021/10/27 02:49:37;;;;;;;3.22;2.70;;;;;;;;;;5113199;28;20479;-49
2021/10/27 02:52:03;;;;;;;3.13;2.50;;;;;;;;;;5113139;28;20631;-47
2021/10/27 02:54:28;;;;;;;3.15;2.85;;;;;;;;;;5113346;28;20107;-47
2021/10/27 02:56:53;;;;;;;2.50;2.30;;;;;;;;;;5113264;28;20024;-46
2021/10/27 02:59:19;;;;;;;3.53;3.08;;;;;;;;;;5112911;28;20015;-49
2021/10/27 03:01:44;;;;;;;3.38;2.80;;;;;;;;;;5112944;28;20114;-49
2021/10/27 03:04:10;;;;;;;3.40;3.05;;;;;;;;;;5113162;28;20125;-48
2021/10/27 03:06:35;;;;;;;3.78;2.60;;;;;;;;;;5112649;28;20031;-48
2021/10/27 03:09:00;;;;;;;3.20;2.90;;;;;;;;;;5112642;28;20088;-51
2021/10/27 03:11:26;;;;;;;4.47;2.40;;;;;;;;;;5112946;28;20062;-47
2021/10/27 03:13:51;;;;;;;3.10;2.45;;;;;;;;;;5113040;28;20027;-48
2021/10/27 03:16:17;;;;;;;3.47;2.90;;;;;;;;;;5112753;28;20072;-51
2021/10/27 03:18:42;;;;;;;3.00;2.78;;;;;;;;;;5112882;28;20075;-50
2021/10/27 03:21:07;;;;;;;3.58;2.60;;;;;;;;;;5112456;28;20035;-51
2021/10/27 03:23:33;;;;;;;4.78;2.75;;;;;;;;;;5112457;28;20023;-47
2021/10/27 03:25:58;;;;;;;3.38;2.55;;;;;;;;;;5112876;28;20507;-50
2021/10/27 03:28:24;;;;;;;3.67;2.83;;;;;;;;;;5112536;28;20473;-50
2021/10/27 03:30:49;;;;;;;3.00;2.50;;;;;;;;;;5112479;28;20026;-50
2021/10/27 03:33:14;;;;;;;3.05;2.67;;;;;;;;;;5112607;28;20171;-49
2021/10/27 03:35:41;;;;;;;2.65;2.10;;;;;;;;;;5112826;28;20361;-49
2021/10/27 03:38:06;;;;;;;3.03;2.42;;;;;;;;;;5112369;28;20478;-50
2021/10/27 03:40:32;;;;;;;4.20;2.58;;;;;;;;;;5112208;28;20058;-49
2021/10/27 03:42:57;;;;;;;3.78;2.83;;;;;;;;;;5111493;28;20031;-50
2021/10/27 03:45:22;;;;;;;3.15;2.63;;;;;;;;;;5112436;28;20024;-49
2021/10/27 03:47:48;;;;;;;2.90;2.67;;;;;;;;;;5112013;28;20047;-48
2021/10/27 03:50:14;;;;;;;2.90;2.53;;;;;;;;;;5120450;27;20034;-51
2021/10/27 03:52:43;;;;;;;3.28;2.65;;;;;;;;;;5091783;28;20025;-48
2021/10/27 03:55:08;;;;;;;3.00;2.80;;;;;;;;;;5091901;28;20039;-51
2021/10/27 03:57:34;;;;;;;2.70;2.38;;;;;;;;;;5091788;28;20473;-48
2021/10/27 03:59:59;;;;;;;2.58;2.35;;;;;;;;;;5110506;28;20016;-49
2021/10/27 04:02:25;;;;;;;3.13;2.30;;;;;;;;;;5112142;28;20539;-47
2021/10/27 04:04:50;;;;;;;3.22;2.53;;;;;;;;;;5112162;28;20023;-47
2021/10/27 04:07:15;;;;;;;4.18;2.97;;;;;;;;;;5112015;28;20369;-47
2021/10/27 04:09:41;;;;;;;3.45;2.60;;;;;;;;;;5111622;28;20028;-47
2021/10/27 04:12:06;;;;;;;2.80;2.40;;;;;;;;;;5111971;28;20039;-46
2021/10/27 04:14:32;;;;;;;3.28;2.55;;;;;;;;;;5111944;28;20481;-47
2021/10/27 04:16:57;;;;;;;2.40;2.20;;;;;;;;;;5111688;28;20032;-47
2021/10/27 04:19:22;;;;;;;3.42;2.72;;;;;;;;;;5111589;28;20031;-49
2021/10/27 04:21:48;;;;;;;2.55;2.35;;;;;;;;;;5112001;28;20031;-47
2021/10/27 04:24:13;;;;;;;3.05;2.47;;;;;;;;;;5111872;28;20027;-47
2021/10/27 04:26:39;;;;;;;3.53;2.70;;;;;;;;;;5111678;28;20035;-47
2021/10/27 04:29:04;;;;;;;3.00;2.58;;;;;;;;;;5111137;28;20027;-47
2021/10/27 04:31:30;;;;;;;3.20;2.90;;;;;;;;;;5112128;28;20019;-47
2021/10/27 04:33:55;;;;;;;2.72;2.53;;;;;;;;;;5111668;28;20023;-48
2021/10/27 04:36:21;;;;;;;4.15;2.50;;;;;;;;;;5111596;28;20089;-47
2021/10/27 04:38:46;;;;;;;3.00;2.50;;;;;;;;;;5127191;28;20038;-47
2021/10/27 04:41:11;;;;;;;2.88;2.30;;;;;;;;;;5111861;28;20031;-46
2021/10/27 04:43:37;;;;;;;3.97;2.60;;;;;;;;;;5111728;28;20487;-47
2021/10/27 04:46:02;;;;;;;2.80;2.35;;;;;;;;;;5111428;28;20070;-47
2021/10/27 04:48:28;;;;;;;2.55;2.20;;;;;;;;;;5111233;28;20052;-51
2021/10/27 04:50:53;;;;;;;3.13;2.83;;;;;;;;;;5111476;28;20540;-47
2021/10/27 04:53:19;;;;;;;2.60;2.40;;;;;;;;;;5111703;28;20034;-47
2021/10/27 04:55:45;;;;;;;2.58;2.38;;;;;;;;;;5115365;28;20031;-49
2021/10/27 04:58:11;;;;;;;3.17;2.88;;;;;;;;;;5115478;27;20480;-47
2021/10/27 05:00:36;;;;;;;2.67;2.47;;;;;;;;;;5114114;28;20028;-49
2021/10/27 05:03:02;;;;;;;3.00;2.60;;;;;;;;;;5115494;28;20084;-47
2021/10/27 05:05:28;;;;;;;2.65;2.45;;;;;;;;;;5115394;28;20468;-47
2021/10/27 05:07:56;;;;;;;2.60;2.40;;;;;;;;;;5115010;28;20386;-47
2021/10/27 05:10:22;;;;;;;2.60;2.40;;;;;;;;;;5114477;28;20484;-47
2021/10/27 05:12:47;;;;;;;2.72;2.45;;;;;;;;;;5115470;28;20114;-47
2021/10/27 05:15:12;;;;;;;3.45;2.60;;;;;;;;;;5115274;28;20106;-48
2021/10/27 05:17:38;;;;;;;3.88;2.50;;;;;;;;;;5114884;28;20047;-47
2021/10/27 05:20:03;;;;;;;3.78;2.58;;;;;;;;;;5114771;28;20357;-47
2021/10/27 05:22:29;;;;;;;3.03;2.60;;;;;;;;;;5115219;27;20441;-50
2021/10/27 05:24:54;;;;;;;3.05;2.50;;;;;;;;;;5114975;28;20074;-47
2021/10/27 05:27:19;;;;;;;2.95;2.50;;;;;;;;;;5114500;28;20051;-48
2021/10/27 05:29:45;;;;;;;3.78;2.45;;;;;;;;;;5114471;28;20023;-48
2021/10/27 05:32:10;;;;;;;3.45;2.83;;;;;;;;;;5113766;28;20042;-46
2021/10/27 05:34:37;;;;;;;3.17;2.67;;;;;;;;;;5114705;28;20050;-48
2021/10/27 05:37:02;;;;;;;2.72;2.45;;;;;;;;;;5115027;28;20027;-46
2021/10/27 05:39:28;;;;;;;2.45;2.25;;;;;;;;;;5114413;28;20023;-49
2021/10/27 05:41:54;;;;;;;3.45;2.38;;;;;;;;;;5115053;28;20400;-46
2021/10/27 05:44:19;;;;;;;3.53;2.70;;;;;;;;;;5115196;27;20024;-46
2021/10/27 05:46:47;;;;;;;2.78;2.47;;;;;;;;;;5094171;28;20036;-46
2021/10/27 05:49:22;;;;;;;2.40;2.17;;;;;;;;;;5109634;28;20365;-46
2021/10/27 05:51:54;;;;;;;2.95;2.40;;;;;;;;;;5114248;28;20027;-48
2021/10/27 05:57:03;;;;;;;2.45;2.25;;;;;;;;;;5114480;28;20027;-47
2021/10/27 05:59:29;;;;;;;2.33;2.13;;;;;;;;;;5113538;28;20031;-47
2021/10/27 06:01:54;;;;;;;2.97;2.50;;;;;;;;;;5114350;28;20024;-56
2021/10/27 06:04:20;;;;;;;3.13;2.50;;;;;;;;;;5114149;28;20031;-49
2021/10/27 06:06:45;;;;;;;3.22;2.50;;;;;;;;;;5112892;28;20526;-45
2021/10/27 06:09:11;;;;;;;2.92;2.45;;;;;;;;;;5113237;28;20027;-46
2021/10/27 06:11:37;;;;;;;2.97;2.67;;;;;;;;;;5112493;28;20438;-46
2021/10/27 06:14:03;;;;;;;2.50;2.30;;;;;;;;;;5114157;28;20480;-46
2021/10/27 06:16:28;;;;;;;2.60;2.40;;;;;;;;;;5113751;28;20077;-46
2021/10/27 06:18:53;;;;;;;3.25;2.33;;;;;;;;;;5113751;28;20029;-51
2021/10/27 06:21:19;;;;;;;2.70;2.50;;;;;;;;;;5113785;28;20428;-46
2021/10/27 06:23:44;;;;;;;3.47;2.55;;;;;;;;;;5113986;27;20031;-46
2021/10/27 06:26:10;;;;;;;4.05;2.70;;;;;;;;;;5113848;27;20397;-48
2021/10/27 06:28:43;;;;;;;3.75;2.45;;;;;;;;;;5113450;28;20030;-50
2021/10/27 06:31:20;;;;;;;3.47;2.90;;;;;;;;;;5113786;28;20016;-47
2021/10/27 06:36:27;;;;;;;2.60;2.40;;;;;;;;;;5113654;28;20118;-47
2021/10/27 06:46:48;;;;;;;4.32;2.65;;;;;;;;;;5113546;28;20051;-46
2021/10/27 06:49:13;;;;;;;2.90;2.65;;;;;;;;;;5112155;28;20019;-46
2021/10/27 06:51:38;;;;;;;3.17;2.58;;;;;;;;;;5111985;28;20035;-47
2021/10/27 06:54:04;;;;;;;3.10;2.70;;;;;;;;;;5111341;28;20468;-47
2021/10/27 06:56:30;;;;;;;2.55;2.25;;;;;;;;;;5112387;28;20028;-47
2021/10/27 07:17:32;;;;;;;2.75;2.20;;;;;;;;;;5112539;28;20046;-47
2021/10/27 07:20:05;;;;;;;2.30;2.10;;;;;;;;;;5112364;28;20072;-48
2021/10/27 07:22:30;;;;;;;3.00;2.70;;;;;;;;;;5111341;28;20110;-47
2021/10/27 07:24:57;;;;;;;3.03;2.45;;;;;;;;;;5106224;28;20090;-48
2021/10/27 07:27:23;;;;;;;2.78;2.30;;;;;;;;;;5109484;28;20036;-49
2021/10/27 07:29:48;;;;;;;3.60;2.30;;;;;;;;;;5094146;28;20030;-49
2021/10/27 07:32:15;;;;;;;3.42;2.63;;;;;;;;;;5099989;28;20033;-48
2021/10/27 07:34:44;;;;;;;;;;;;;;;;;;5111078;28;20107;-50
2021/10/27 07:42:25;;;;;;;3.58;2.78;;;;;;;;;;5111362;28;20066;-50
2021/10/27 07:44:51;;;;;;;5.78;2.47;;;;;;;;;;5109039;28;20452;-50
2021/10/27 07:47:17;;;;;;;3.63;2.50;;;;;;;;;;5109899;28;20120;-47
2021/10/27 07:49:42;;;;;;;4.07;2.75;;;;;;;;;;5109876;28;20033;-48
2021/10/27 07:52:07;;;;;;;4.07;2.72;;;;;;;;;;5109642;28;20019;-51
2021/10/27 07:54:33;;;;;;;3.75;2.47;;;;;;;;;;5109711;28;20031;-48
2021/10/27 07:56:59;;;;;;;2.97;2.38;;;;;;;;;;5107565;28;20122;-48
2021/10/27 07:59:24;;;;;;;2.83;2.58;;;;;;;;;;5110531;28;20031;-48
2021/10/27 08:01:49;;;;;;;3.05;2.55;;;;;;;;;;5111556;28;20024;-47
2021/10/27 08:04:15;;;;;;;2.58;2.38;;;;;;;;;;5112023;28;20042;-47
2021/10/27 08:06:41;;;;;;;4.07;2.58;;;;;;;;;;5111890;28;20027;-46
2021/10/27 08:09:06;;;;;;;2.70;2.50;;;;;;;;;;5095457;28;20035;-47
2021/10/27 08:11:32;;;;;;;3.03;2.47;;;;;;;;;;5091706;28;20161;-47
2021/10/27 08:13:57;;;;;;;3.28;2.47;;;;;;;;;;5104815;28;20028;-47
2021/10/27 08:16:22;;;;;;;3.97;2.50;;;;;;;;;;5111748;28;20496;-47
2021/10/27 08:18:48;;;;;;;2.80;2.60;;;;;;;;;;5111397;28;20054;-48
2021/10/27 08:21:13;;;;;;;3.22;2.30;;;;;;;;;;5111747;28;20023;-47
2021/10/27 08:23:41;;;;;;;3.15;2.50;;;;;;;;;;5111216;28;20069;-49
2021/10/27 08:26:12;;;;;;;4.53;2.42;;;;;;;;;;5111127;28;20039;-48
2021/10/27 08:28:40;;;;;;;2.53;2.33;;;;;;;;;;5103991;28;20082;-46
2021/10/27 08:35:56;;;;;;;3.72;2.40;;;;;;;;;;5116219;28;20032;-46
2021/10/27 08:38:21;;;;;;;3.05;2.30;;;;;;;;;;5114274;27;20053;-47
2021/10/27 08:40:47;;;;;;;7.95;2.90;;;;;;;;;;5115981;28;20118;-49
2021/10/27 08:43:13;;;;;;;2.88;2.30;;;;;;;;;;5115355;28;20034;-50
2021/10/27 08:45:39;;;;;;;4.03;2.40;;;;;;;;;;5115688;28;20023;-48
2021/10/27 08:48:07;;;;;;;3.50;2.47;;;;;;;;;;5130842;27;20052;-50
2021/10/27 08:50:32;;;;;;;3.35;3.03;;;;;;;;;;5115241;28;20114;-51
2021/10/27 08:52:58;;;;;;;2.88;2.67;;;;;;;;;;5114013;28;20552;-47
2021/10/27 08:55:23;;;;;;;4.53;2.92;;;;;;;;;;5115500;28;20046;-47
2021/10/27 08:57:50;;;;;;;3.50;3.03;;;;;;;;;;5115549;28;20019;-47
2021/10/27 09:00:44;;;;;;;;;;;;;;;;;;5115408;28;20016;-47
2021/10/27 09:05:46;;;;;;;5.70;2.73;;;;;;;;;;5114805;28;20031;-47
2021/10/27 09:42:32;;;;;;;3.25;2.30;;;;;;;;;;4900788;29;20036;-37
2021/10/27 09:55:26;;;;;;;3.47;2.40;;;;;;;;;;4928369;28;20664;-37
2021/10/27 10:04:30;;;;;;;2.30;2.10;;;;;;;;;;4968770;28;20130;-38
2021/10/27 10:06:59;;;;;;;2.28;2.10;;;;;;;;;;4971968;28;20141;-37
2021/10/27 10:09:26;;;;;;;2.20;2.00;;;;;;;;;;5045503;28;20036;-38
2021/10/27 10:11:54;;;;;;;2.30;2.10;;;;;;;;;;5067409;28;20028;-37
2021/10/27 10:14:20;;;;;;;3.47;1.90;;;;;;;;;;5053114;28;20025;-37
2021/10/27 10:16:47;;;;;;;2.63;2.17;;;;;;;;;;5063589;28;20048;-37
2021/10/27 10:19:17;;;;;;;2.72;2.10;;;;;;;;;;5042579;28;20468;-36
2021/10/27 10:21:46;;;;;;;3.55;2.08;;;;;;;;;;5067961;28;20511;-37
2021/10/27 10:24:19;;;;;;;2.08;1.77;;;;;;;;;;5066400;28;20493;-37
2021/10/27 10:26:45;;;;;;;3.08;2.42;;;;;;;;;;5052934;28;20033;-37
2021/10/27 10:29:31;;;;;;;2.30;1.80;;;;;;;;;;5057041;28;20036;-37
2021/10/27 10:31:56;;;;;;;2.65;2.13;;;;;;;;;;5066242;28;20105;-37
2021/10/27 10:34:43;;;;;;;2.37;2.10;;;;;;;;;;5069263;28;20126;-37
2021/10/27 10:37:27;;;;;;;2.17;2.00;;;;;;;;;;5072431;28;20032;-37
2021/10/27 10:39:54;;;;;;;2.47;2.08;;;;;;;;;;5051462;28;20031;-37
2021/10/27 10:42:34;;;;;;;;;;;;;;;;;;5041201;28;20061;-37
2021/10/27 11:37:20;;;;;;;2.00;1.80;;;;;;;;;;4890468;29;20066;-37
2021/10/27 11:38:49;;;;;;;2.63;2.08;;;;;;;;;;4959128;28;20130;-38
2021/10/27 11:41:30;;;;;;;2.00;1.90;;;;;;;;;;4965961;28;20061;-37
2021/10/27 11:44:11;;;;;;;1.70;1.60;;;;;;;;;;4966555;28;20019;-37
2021/10/27 11:47:08;;;;;;;2.38;1.90;;;;;;;;;;4953972;28;20030;-37
2021/10/27 11:49:39;;;;;;;2.45;1.73;;;;;;;;;;4958977;28;20043;-37
2021/10/27 11:52:05;;;;;;;2.30;2.10;;;;;;;;;;4969374;28;20026;-37
2021/10/27 11:54:31;;;;;;;2.00;1.80;;;;;;;;;;4970357;28;20082;-37
2021/10/27 11:56:57;;;;;;;1.90;1.75;;;;;;;;;;4969637;28;20534;-36
2021/10/27 11:59:22;;;;;;;2.20;1.90;;;;;;;;;;4968444;28;20045;-37
2021/10/27 12:01:51;;;;;;;1.70;1.60;;;;;;;;;;4968953;28;20498;-37
2021/10/27 12:04:18;;;;;;;2.30;1.50;;;;;;;;;;4967775;28;20085;-37
2021/10/27 12:12:06;;;;;;;1.87;1.73;;;;;;;;;;5066223;28;20078;-37
2021/10/27 12:14:45;;;;;;;1.90;1.80;;;;;;;;;;5070266;28;20028;-37
2021/10/27 12:19:58;;;;;;;1.65;1.52;;;;;;;;;;5069433;28;20035;-37
2021/10/27 12:22:24;;;;;;;2.28;1.58;;;;;;;;;;5070875;28;20021;-37
2021/10/27 12:24:56;;;;;;;1.87;1.60;;;;;;;;;;5070811;28;20397;-37
2021/10/27 12:29:55;;;;;;;2.22;2.00;;;;;;;;;;5070575;28;20036;-37
2021/10/27 12:32:21;;;;;;;1.80;1.45;;;;;;;;;;5062254;28;20036;-37
2021/10/27 12:34:48;;;;;;;2.85;1.75;;;;;;;;;;5070841;28;20399;-37
2021/10/27 12:40:34;;;;;;;2.05;1.85;;;;;;;;;;5059686;28;20523;-37
2021/10/27 12:43:00;;;;;;;3.28;2.05;;;;;;;;;;5049403;28;20064;-37
2021/10/27 12:45:36;;;;;;;1.83;1.60;;;;;;;;;;5050704;28;20074;-37
2021/10/27 12:48:06;;;;;;;1.60;1.50;;;;;;;;;;5069713;28;20039;-37
2021/10/27 12:50:32;;;;;;;2.10;1.77;;;;;;;;;;5058603;28;20079;-37
2021/10/27 12:53:02;;;;;;;1.65;1.55;;;;;;;;;;5070691;28;20391;-37
2021/10/27 12:55:29;;;;;;;2.67;1.85;;;;;;;;;;5069874;28;20568;-37
2021/10/27 12:57:57;;;;;;;1.95;1.65;;;;;;;;;;5069916;28;20028;-36
2021/10/27 13:00:39;;;;;;;1.77;1.67;;;;;;;;;;5068783;28;20035;-37
2021/10/27 13:03:13;;;;;;;1.67;1.58;;;;;;;;;;5056334;28;20024;-37
2021/10/27 13:05:43;;;;;;;1.83;1.60;;;;;;;;;;5061065;28;20047;-37
2021/10/27 13:08:24;;;;;;;1.98;1.88;;;;;;;;;;5059258;28;20103;-36
2021/10/27 13:11:04;;;;;;;1.88;1.58;;;;;;;;;;5066269;28;20031;-37
2021/10/27 13:16:07;;;;;;;2.07;1.73;;;;;;;;;;5058523;28;20435;-37
2021/10/27 13:21:12;;;;;;;1.87;1.40;;;;;;;;;;5072169;28;20111;-37
2021/10/27 13:23:57;;;;;;;1.40;1.30;;;;;;;;;;5070129;28;20048;-37
2021/10/27 13:31:51;;;;;;;1.75;1.30;;;;;;;;;;5073637;28;20039;-37
2021/10/27 13:34:17;;;;;;;2.70;1.60;;;;;;;;;;5073670;28;20025;-36
2021/10/27 13:36:42;;;;;;;1.97;1.70;;;;;;;;;;5073642;28;20060;-37
2021/10/27 13:39:08;;;;;;;2.15;1.95;;;;;;;;;;5071793;28;20288;-35
2021/10/27 13:41:35;;;;;;;2.20;1.80;;;;;;;;;;5071835;28;20248;-36
2021/10/27 13:44:12;;;;;;;1.77;1.67;;;;;;;;;;5070272;28;20457;-36
2021/10/27 14:08:17;;;;;;;2.08;1.67;;;;;;;;;;5072480;28;20052;-36
2021/10/27 14:13:23;;;;;;;1.70;1.60;;;;;;;;;;5073273;28;20719;-36
2021/10/27 15:21:22;;;;;;;1.75;1.65;;;;;;;;;;5029433;28;20515;-49
2021/10/27 15:24:00;;;;;;;1.70;1.60;;;;;;;;;;5029258;28;20056;-48
2021/10/27 15:31:40;;;;;;;2.17;1.70;;;;;;;;;;5029463;28;20033;-47
2021/10/27 15:52:50;;;;;;;3.15;1.80;;;;;;;;;;5029328;28;20044;-47
2021/10/27 15:55:15;;;;;;;2.93;1.63;;;;;;;;;;5028836;28;20426;-49
2021/10/27 15:57:41;;;;;;;1.55;1.45;;;;;;;;;;5021498;28;20052;-50
2021/10/27 16:00:07;;;;;;;1.58;1.48;;;;;;;;;;5019209;28;20021;-48
2021/10/27 16:02:33;;;;;;;1.73;1.60;;;;;;;;;;5028811;28;20036;-49
2021/10/27 16:04:58;;;;;;;2.80;2.10;;;;;;;;;;5028607;28;20396;-50
2021/10/27 16:07:25;;;;;;;1.50;1.38;;;;;;;;;;5021551;28;20061;-48
2021/10/27 16:09:52;;;;;;;2.45;1.60;;;;;;;;;;5019297;28;20396;-49
2021/10/27 16:12:17;;;;;;;2.85;2.22;;;;;;;;;;5028775;28;20052;-48
2021/10/27 16:14:45;;;;;;;2.17;1.70;;;;;;;;;;5028571;28;20477;-51
2021/10/27 16:17:10;;;;;;;2.35;1.77;;;;;;;;;;5024197;28;20075;-52
2021/10/27 16:19:35;;;;;;;2.57;1.80;;;;;;;;;;5017093;28;20086;-47
2021/10/27 16:22:02;;;;;;;1.70;1.60;;;;;;;;;;5028511;28;20039;-47
2021/10/27 16:24:27;;;;;;;2.93;1.60;;;;;;;;;;5028465;28;20022;-47
2021/10/27 16:26:53;;;;;;;1.93;1.67;;;;;;;;;;5028549;28;20031;-48
2021/10/27 16:29:19;;;;;;;1.60;1.50;;;;;;;;;;5011716;28;20109;-47
2021/10/27 16:31:45;;;;;;;2.17;1.60;;;;;;;;;;5028380;28;20060;-47
2021/10/27 16:34:10;;;;;;;2.17;1.52;;;;;;;;;;5026881;28;20078;-47
2021/10/27 16:36:36;;;;;;;2.40;1.70;;;;;;;;;;5028399;28;20029;-48
2021/10/27 16:39:04;;;;;;;1.73;1.60;;;;;;;;;;5011580;28;20086;-51
2021/10/27 16:41:30;;;;;;;2.65;1.75;;;;;;;;;;5028293;28;20032;-47
2021/10/27 16:43:55;;;;;;;1.95;1.42;;;;;;;;;;5025251;28;20545;-50
2021/10/27 16:46:20;;;;;;;1.80;1.47;;;;;;;;;;5028187;28;20104;-49
2021/10/27 16:48:46;;;;;;;2.83;1.80;;;;;;;;;;5018570;28;20116;-50
2021/10/27 16:51:11;;;;;;;2.25;1.60;;;;;;;;;;5030789;28;20053;-47
2021/10/27 16:53:37;;;;;;;1.63;1.50;;;;;;;;;;5031817;28;20113;-51
2021/10/27 16:56:04;;;;;;;1.70;1.60;;;;;;;;;;5031563;28;20104;-50
2021/10/27 16:58:30;;;;;;;;;;;;;;;;;;5016983;28;20029;-46
2021/10/27 17:00:56;;;;;;;3.10;1.65;;;;;;;;;;5013114;28;19920;-51
2021/10/27 17:03:21;;;;;;;1.90;1.77;;;;;;;;;;5015410;28;20408;-53
2021/10/27 17:05:46;;;;;;;1.88;1.67;;;;;;;;;;5013627;28;20033;-49
2021/10/27 17:08:16;;;;;;;1.90;1.70;;;;;;;;;;5006029;28;20088;-46
2021/10/27 17:10:45;;;;;;;2.10;1.70;;;;;;;;;;5016500;28;20025;-49
2021/10/27 17:13:11;;;;;;;2.25;1.58;;;;;;;;;;5031516;28;20171;-50
2021/10/27 17:15:37;;;;;;;2.30;1.37;;;;;;;;;;5031342;28;20059;-50
2021/10/27 17:18:02;;;;;;;1.98;1.60;;;;;;;;;;5019875;28;20112;-46
2021/10/27 17:20:28;;;;;;;1.77;1.40;;;;;;;;;;5026892;28;20021;-48
2021/10/27 17:22:59;;;;;;;2.63;1.80;;;;;;;;;;5031299;28;20022;-46
2021/10/27 17:25:24;;;;;;;1.70;1.60;;;;;;;;;;5031007;28;20049;-47
2021/10/27 17:27:50;;;;;;;1.60;1.47;;;;;;;;;;5018939;28;20053;-50
2021/10/27 17:30:16;;;;;;;1.85;1.60;;;;;;;;;;5025799;28;20121;-47
2021/10/27 17:32:42;;;;;;;2.75;1.77;;;;;;;;;;5031563;28;20045;-49
2021/10/27 17:35:15;;;;;;;2.05;1.73;;;;;;;;;;5031108;28;20057;-48
2021/10/27 17:37:42;;;;;;;2.08;1.80;;;;;;;;;;5024223;28;20026;-50
2021/10/27 17:40:17;;;;;;;2.00;1.80;;;;;;;;;;5021173;28;20525;-48
2021/10/27 17:42:45;;;;;;;2.03;1.80;;;;;;;;;;5029852;28;20117;-49
2021/10/27 17:45:13;;;;;;;2.38;2.00;;;;;;;;;;5030666;28;20033;-49
2021/10/27 17:47:45;;;;;;;1.80;1.70;;;;;;;;;;5021841;28;20025;-47
2021/10/27 18:00:59;;;;;;;1.73;1.63;;;;;;;;;;5027567;28;20050;-48
2021/10/27 18:03:26;;;;;;;1.98;1.50;;;;;;;;;;5028666;28;20034;-49
2021/10/27 18:05:51;;;;;;;2.35;1.80;;;;;;;;;;5030615;28;20021;-49
2021/10/27 18:08:20;;;;;;;2.33;1.77;;;;;;;;;;5015101;28;20037;-48
2021/10/27 18:10:49;;;;;;;3.08;1.95;;;;;;;;;;5013527;28;20029;-49
2021/10/27 18:13:17;;;;;;;2.13;1.92;;;;;;;;;;5021213;28;20029;-48
2021/10/27 18:15:47;;;;;;;2.08;1.60;;;;;;;;;;5017617;28;20116;-48
2021/10/27 18:18:19;;;;;;;2.17;1.60;;;;;;;;;;5009689;28;20022;-48
2021/10/27 18:20:46;;;;;;;1.95;1.75;;;;;;;;;;5020266;27;20130;-48
2021/10/27 18:28:36;;;;;;;1.80;1.70;;;;;;;;;;5010018;28;20111;-51
2021/10/27 18:36:35;;;;;;;1.52;1.42;;;;;;;;;;5030166;28;20097;-48
2021/10/27 18:41:48;;;;;;;2.15;1.70;;;;;;;;;;5030351;28;20030;-48
2021/10/27 18:44:13;;;;;;;2.13;1.85;;;;;;;;;;5029915;28;20022;-47
2021/10/27 18:46:45;;;;;;;1.67;1.58;;;;;;;;;;5029967;28;20017;-47
2021/10/27 18:49:11;;;;;;;2.20;1.98;;;;;;;;;;5019122;28;20489;-51
2021/10/27 18:51:37;;;;;;;3.20;1.80;;;;;;;;;;5029953;28;20025;-49
2021/10/27 18:59:22;;;;;;;3.22;2.25;;;;;;;;;;5017249;28;20036;-48
2021/10/27 19:01:57;;;;;;;1.80;1.70;;;;;;;;;;5029228;28;20060;-48
2021/10/27 19:12:45;;;;;;;2.60;2.00;;;;;;;;;;5028444;28;20032;-51
2021/10/27 19:15:19;;;;;;;1.63;1.52;;;;;;;;;;5028126;28;20025;-49
2021/10/27 19:17:45;;;;;;;2.17;2.08;;;;;;;;;;5020760;28;20048;-49
2021/10/27 19:20:10;;;;;;;2.90;1.98;;;;;;;;;;5018120;28;20030;-49
2021/10/27 19:22:36;;;;;;;3.27;1.90;;;;;;;;;;5028936;28;20139;-48
2021/10/27 20:18:21;;;;;;;2.25;2.05;;;;;;;;;;5104075;28;20038;-47
2021/10/27 20:53:19;;;;;;;3.42;2.55;;;;;;;;;;5110597;28;20036;-48
2021/10/27 20:55:45;;;;;;;3.05;2.40;;;;;;;;;;5110545;28;20047;-48
2021/10/27 21:03:28;;;;;;;2.70;2.50;;;;;;;;;;5032112;28;20383;-47
2021/10/27 21:14:06;;;;;;;2.30;2.10;;;;;;;;;;5026882;28;20036;-48
2021/10/27 21:16:33;;;;;;;2.63;2.42;;;;;;;;;;5027469;28;20104;-50
2021/10/27 21:18:59;;;;;;;2.90;2.50;;;;;;;;;;5026063;28;20450;-49
2021/10/27 21:21:24;;;;;;;3.55;2.30;;;;;;;;;;5026920;28;20017;-48
2021/10/27 21:23:50;;;;;;;3.30;2.38;;;;;;;;;;5024883;28;20033;-49
2021/10/27 21:26:19;;;;;;;4.53;3.03;;;;;;;;;;5020730;28;20070;-48
2021/10/27 21:44:43;;;;;;;3.22;2.63;;;;;;;;;;5011458;28;20102;-48
2021/10/27 21:47:10;;;;;;;2.38;2.13;;;;;;;;;;5011324;28;20029;-48
2021/10/27 21:49:36;;;;;;;2.70;2.50;;;;;;;;;;5016598;28;20051;-47
2021/10/27 21:52:04;;;;;;;2.90;2.22;;;;;;;;;;5031057;28;20033;-48
2021/10/27 21:54:31;;;;;;;2.60;2.22;;;;;;;;;;5029088;28;20108;-48
2021/10/27 21:56:56;;;;;;;2.83;2.50;;;;;;;;;;5087234;28;20055;-47
2021/10/27 21:59:22;;;;;;;3.47;2.47;;;;;;;;;;5030147;28;20049;-48
2021/10/27 22:01:51;;;;;;;3.22;2.70;;;;;;;;;;5030768;28;20112;-48